WetterOnline ( http://www.wetteronline.de )

Wetter aktuell Konstanz

Aktuelles Wetter: Konstanz (397m)

6-stündlich | Neueste Meldungen
Ortszeit Temperatur Wetter
Sa, 22.09. 20:00 15.9° C leichter Regen
Sa, 22.09. 14:00 16.6° C bedeckt
Sa, 22.09. 8:00 11.4° C wolkig
Sa, 22.09. 2:00 12.5° C bedeckt
Fr, 21.09. 20:00 17.7° C leichter Regen
Fr, 21.09. 14:00 25.4° C bedeckt
Fr, 21.09. 8:00 14.6° C wolkig
Fr, 21.09. 2:00 15.8° C wolkenlos
Ortszeit Temperatur Wetter
So, 23.09. 0:30 14.7° C bedeckt
So, 23.09. 0:20 14.7° C bedeckt
So, 23.09. 0:10 14.7° C Sprühregen
So, 23.09. 0:00 15.0° C bedeckt
Sa, 22.09. 23:50 15.0° C bedeckt
Sa, 22.09. 23:40 15.2° C leichter Regen
Sa, 22.09. 23:30 15.2° C bedeckt
Sa, 22.09. 23:00 15.2° C bedeckt
Sa, 22.09. 22:30 15.2° C Sprühregen
Sa, 22.09. 22:00 15.5° C leichter Regen
Sa, 22.09. 21:30 15.6° C bedeckt
Ortszeit Relative Feuchte Sichtweite
Sa, 22.09. 20:00 66% 65 km
Sa, 22.09. 14:00 48% 70 km
Sa, 22.09. 8:00 80% 70 km
Sa, 22.09. 2:00 77% 70 km
Fr, 21.09. 20:00 81% 8 km
Fr, 21.09. 14:00 44% 60 km
Fr, 21.09. 8:00 94% 12 km
Fr, 21.09. 2:00 86% 35 km
Ortszeit Relative Feuchte Sichtweite
So, 23.09. 0:30 81% 55 km
So, 23.09. 0:20 81% -
So, 23.09. 0:10 79% -
So, 23.09. 0:00 78% 65 km
Sa, 22.09. 23:50 78% -
Sa, 22.09. 23:40 71% -
Sa, 22.09. 23:30 73% 70 km
Sa, 22.09. 23:00 76% 65 km
Sa, 22.09. 22:30 79% 65 km
Sa, 22.09. 22:00 73% 45 km
Sa, 22.09. 21:30 71% 70 km
Ortszeit Niederschlagsmenge Niederschlagsart
Sa, 22.09. 20:00 0.1 l/m2 in 12 Std. Regen
Sa, 22.09. 14:00 0.0 l/m2 in 6 Std. -
Sa, 22.09. 8:00 2 l/m2 in 12 Std. -
Sa, 22.09. 2:00 2 l/m2 in 6 Std. Regen
Fr, 21.09. 20:00 1 l/m2 in 12 Std. Regen
Fr, 21.09. 14:00 0.0 l/m2 in 6 Std. -
Fr, 21.09. 8:00 0.0 l/m2 in 12 Std. -
Fr, 21.09. 2:00 0.0 l/m2 in 6 Std. -
Ortszeit Niederschlagsmenge Niederschlagsart
So, 23.09. 0:30 0.1 l/m2 in 1 Std. Schneeregen
So, 23.09. 0:20 keine Meldung -
So, 23.09. 0:10 keine Meldung -
So, 23.09. 0:00 0.1 l/m2 in 1 Std. Regen
Sa, 22.09. 23:50 keine Meldung -
Sa, 22.09. 23:40 keine Meldung -
Sa, 22.09. 23:30 0.0 l/m2 in 1 Std. -
Sa, 22.09. 23:00 0.1 l/m2 in 1 Std. Regen
Sa, 22.09. 22:30 0.1 l/m2 in 1 Std. -
Sa, 22.09. 22:00 0.1 l/m2 in 1 Std. Regen
Sa, 22.09. 21:30 0.0 l/m2 in 1 Std. -
Ortszeit Stärke Spitze Richtung
km/h Bft. km/h Grad Sektor
Sa, 22.09. 20:00 6 1 20 150° SO
Sa, 22.09. 14:00 7 2 14 240° SW
Sa, 22.09. 8:00 7 2 22 270° W
Sa, 22.09. 2:00 7 2 29 250° W
Fr, 21.09. 20:00 18 3 47 250° W
Fr, 21.09. 14:00 22 4 43 240° SW
Fr, 21.09. 8:00 0 0 7 - -
Fr, 21.09. 2:00 4 1 11 310° NW
Ortszeit Stärke Spitze Richtung
km/h Bft. km/h Grad Sektor
So, 23.09. 0:30 4 1 7 280° W
So, 23.09. 0:20 4 1 - 280° W
So, 23.09. 0:10 4 1 - 210° SW
So, 23.09. 0:00 4 1 7 300° NW
Sa, 22.09. 23:50 4 1 - 300° NW
Sa, 22.09. 23:40 4 1 - 240° SW
Sa, 22.09. 23:30 4 1 7 270° W
Sa, 22.09. 23:00 4 1 7 240° SW
Sa, 22.09. 22:30 4 1 7 200° S
Sa, 22.09. 22:00 4 1 7 200° S
Sa, 22.09. 21:30 4 1 7 190° S
Ortszeit Untergrenze Bedeckung Gattung
total tief tief mittel hoch
Sa, 22.09. 20:00 2700 m 8/8 7/8 - - -
Sa, 22.09. 14:00 5400 m 8/8 8/8 - - -
Sa, 22.09. 8:00 6300 m 8/8 3/8 - - -
Sa, 22.09. 2:00 2100 m 8/8 8/8 - - -
Fr, 21.09. 20:00 1500 m 8/8 8/8 - - -
Fr, 21.09. 14:00 5700 m 8/8 8/8 - - -
Fr, 21.09. 8:00 9000 m 7/8 0/8 - - -
Fr, 21.09. 2:00 - 0/8 0/8 - - -
Ortszeit Bedeckungsgrad in Achtel und Wolkenuntergrenze
So, 23.09. 0:30 1(1260m) 7(1500m) 8(1800m)
So, 23.09. 0:20 1(1260m) 7(1500m) 8(1800m)
So, 23.09. 0:10 7(1800m)
So, 23.09. 0:00 8(1800m) 8(2100m)
Sa, 22.09. 23:50 8(1800m) 8(2100m)
Sa, 22.09. 23:40 8(1800m) 8(2100m)
Sa, 22.09. 23:30 7(1800m) 8(2100m)
Sa, 22.09. 23:00 4(1800m) 8(2100m)
Sa, 22.09. 22:30 8(1800m) 8(2400m)
Sa, 22.09. 22:00 8(1800m)
Sa, 22.09. 21:30 8(2100m) 8(3300m)
Ortszeit Luftdruck NN (hPa) Tendenz (hPa in 3 Std.)
Sa, 22.09. 20:00 1021 - 0,6
Sa, 22.09. 14:00 1023 - 1,4
Sa, 22.09. 8:00 1025 0,0
Sa, 22.09. 2:00 1024 + 2,4
Fr, 21.09. 20:00 1015 + 3,0
Fr, 21.09. 14:00 1012 - 1,4
Fr, 21.09. 8:00 1015 + 0,1
Fr, 21.09. 2:00 1016 - 1,0
Ortszeit Luftdruck NN (hPa) Tendenz (hPa in 3 Std.)
So, 23.09. 0:30 1022 + 0,6
So, 23.09. 0:20 1022 keine Meldung
So, 23.09. 0:10 1021 keine Meldung
So, 23.09. 0:00 1021 + 0,5
Sa, 22.09. 23:50 1021 keine Meldung
Sa, 22.09. 23:40 1021 keine Meldung
Sa, 22.09. 23:30 1021 + 0,1
Sa, 22.09. 23:00 1021 + 0,1
Sa, 22.09. 22:30 1021 + 0,4
Sa, 22.09. 22:00 1021 + 0,6
Sa, 22.09. 21:30 1021 + 0,2
Ortszeit Schneehöhe (cm)
Sa, 22.09. 20:00 -
Sa, 22.09. 14:00 -
Sa, 22.09. 8:00 -
Sa, 22.09. 2:00 -
Fr, 21.09. 20:00 -
Fr, 21.09. 14:00 -
Fr, 21.09. 8:00 -
Fr, 21.09. 2:00 -
Ortszeit Schneehöhe (cm)
So, 23.09. 0:30 -
So, 23.09. 0:20 -
So, 23.09. 0:10 -
So, 23.09. 0:00 -
Sa, 22.09. 23:50 -
Sa, 22.09. 23:40 -
Sa, 22.09. 23:30 -
Sa, 22.09. 23:00 -
Sa, 22.09. 22:30 -
Sa, 22.09. 22:00 -
Sa, 22.09. 21:30 -
Link zu dieser Seite / Seite empfehlen

Das Wetter in ...